sensor_id;sensor_type;location;lat;lon;timestamp;P1;durP1;ratioP1;P2;durP2;ratioP2
51529;SDS011;37613;51.788;21.582;2022-12-11T00:02:27;76.80;;;30.60;;
51529;SDS011;37613;51.788;21.582;2022-12-11T00:10:32;73.40;;;28.60;;
51529;SDS011;37613;51.788;21.582;2022-12-11T00:14:34;56.70;;;26.40;;
51529;SDS011;37613;51.788;21.582;2022-12-11T00:18:39;61.90;;;26.20;;
51529;SDS011;37613;51.788;21.582;2022-12-11T00:22:41;71.80;;;28.90;;
51529;SDS011;37613;51.788;21.582;2022-12-11T00:26:43;60.40;;;26.60;;
51529;SDS011;37613;51.788;21.582;2022-12-11T00:30:45;55.60;;;26.40;;
51529;SDS011;37613;51.788;21.582;2022-12-11T00:34:48;57.10;;;25.70;;
51529;SDS011;37613;51.788;21.582;2022-12-11T00:38:50;62.20;;;28.90;;
51529;SDS011;37613;51.788;21.582;2022-12-11T00:42:53;56.40;;;27.10;;
51529;SDS011;37613;51.788;21.582;2022-12-11T00:46:55;57.70;;;24.70;;
51529;SDS011;37613;51.788;21.582;2022-12-11T00:50:57;51.70;;;23.70;;
51529;SDS011;37613;51.788;21.582;2022-12-11T00:55:00;55.40;;;28.00;;
51529;SDS011;37613;51.788;21.582;2022-12-11T00:59:02;52.20;;;26.10;;
51529;SDS011;37613;51.788;21.582;2022-12-11T01:03:04;60.50;;;27.90;;
51529;SDS011;37613;51.788;21.582;2022-12-11T01:07:06;55.50;;;26.50;;
51529;SDS011;37613;51.788;21.582;2022-12-11T01:11:09;57.70;;;26.30;;
51529;SDS011;37613;51.788;21.582;2022-12-11T01:15:13;52.30;;;24.70;;
51529;SDS011;37613;51.788;21.582;2022-12-11T01:19:15;43.00;;;21.70;;
51529;SDS011;37613;51.788;21.582;2022-12-11T01:23:17;57.90;;;28.00;;
51529;SDS011;37613;51.788;21.582;2022-12-11T01:27:19;77.50;;;36.60;;
51529;SDS011;37613;51.788;21.582;2022-12-11T01:31:21;55.10;;;25.30;;
51529;SDS011;37613;51.788;21.582;2022-12-11T01:35:23;61.80;;;28.40;;
51529;SDS011;37613;51.788;21.582;2022-12-11T01:39:25;65.50;;;30.10;;
51529;SDS011;37613;51.788;21.582;2022-12-11T01:43:27;61.90;;;28.60;;
51529;SDS011;37613;51.788;21.582;2022-12-11T01:47:29;54.40;;;25.70;;
51529;SDS011;37613;51.788;21.582;2022-12-11T01:51:32;53.60;;;25.40;;
51529;SDS011;37613;51.788;21.582;2022-12-11T01:55:40;53.80;;;24.90;;
51529;SDS011;37613;51.788;21.582;2022-12-11T01:59:43;55.20;;;26.70;;
51529;SDS011;37613;51.788;21.582;2022-12-11T02:03:47;52.40;;;25.30;;
51529;SDS011;37613;51.788;21.582;2022-12-11T02:07:54;60.80;;;27.70;;
51529;SDS011;37613;51.788;21.582;2022-12-11T02:16:21;47.70;;;24.00;;
51529;SDS011;37613;51.788;21.582;2022-12-11T02:20:32;59.30;;;26.60;;
51529;SDS011;37613;51.788;21.582;2022-12-11T02:24:51;54.90;;;25.80;;
51529;SDS011;37613;51.788;21.582;2022-12-11T02:29:06;55.20;;;25.30;;
51529;SDS011;37613;51.788;21.582;2022-12-11T02:33:12;43.80;;;22.30;;
51529;SDS011;37613;51.788;21.582;2022-12-11T02:37:20;55.90;;;24.00;;
51529;SDS011;37613;51.788;21.582;2022-12-11T02:41:25;48.80;;;23.60;;
51529;SDS011;37613;51.788;21.582;2022-12-11T02:45:30;42.40;;;22.20;;
51529;SDS011;37613;51.788;21.582;2022-12-11T02:49:34;43.70;;;20.10;;
51529;SDS011;37613;51.788;21.582;2022-12-11T02:53:37;49.30;;;21.00;;
51529;SDS011;37613;51.788;21.582;2022-12-11T02:57:56;52.00;;;23.00;;
51529;SDS011;37613;51.788;21.582;2022-12-11T03:02:05;47.40;;;22.10;;
51529;SDS011;37613;51.788;21.582;2022-12-11T03:06:08;50.60;;;23.70;;
51529;SDS011;37613;51.788;21.582;2022-12-11T03:10:16;39.40;;;19.50;;
51529;SDS011;37613;51.788;21.582;2022-12-11T03:14:19;36.00;;;18.70;;
51529;SDS011;37613;51.788;21.582;2022-12-11T03:31:33;46.80;;;20.40;;
51529;SDS011;37613;51.788;21.582;2022-12-11T03:35:56;45.10;;;19.80;;
51529;SDS011;37613;51.788;21.582;2022-12-11T03:40:07;48.10;;;22.50;;
51529;SDS011;37613;51.788;21.582;2022-12-11T03:44:14;41.60;;;20.30;;
51529;SDS011;37613;51.788;21.582;2022-12-11T03:48:17;47.30;;;21.60;;
51529;SDS011;37613;51.788;21.582;2022-12-11T03:52:21;45.60;;;21.10;;
51529;SDS011;37613;51.788;21.582;2022-12-11T03:56:28;47.80;;;21.80;;
51529;SDS011;37613;51.788;21.582;2022-12-11T04:00:32;36.80;;;19.60;;
51529;SDS011;37613;51.788;21.582;2022-12-11T04:04:34;37.60;;;18.50;;
51529;SDS011;37613;51.788;21.582;2022-12-11T04:08:40;42.20;;;20.50;;
51529;SDS011;37613;51.788;21.582;2022-12-11T04:12:42;44.10;;;19.00;;
51529;SDS011;37613;51.788;21.582;2022-12-11T04:16:44;47.30;;;22.10;;
51529;SDS011;37613;51.788;21.582;2022-12-11T04:20:46;43.40;;;21.80;;
51529;SDS011;37613;51.788;21.582;2022-12-11T04:25:14;41.90;;;19.70;;
51529;SDS011;37613;51.788;21.582;2022-12-11T04:29:16;43.00;;;20.20;;
51529;SDS011;37613;51.788;21.582;2022-12-11T04:33:18;48.10;;;20.80;;
51529;SDS011;37613;51.788;21.582;2022-12-11T04:37:20;38.20;;;18.50;;
51529;SDS011;37613;51.788;21.582;2022-12-11T04:41:22;34.70;;;17.60;;
51529;SDS011;37613;51.788;21.582;2022-12-11T04:45:24;42.20;;;18.30;;
51529;SDS011;37613;51.788;21.582;2022-12-11T04:49:26;35.80;;;18.00;;
51529;SDS011;37613;51.788;21.582;2022-12-11T04:53:31;42.80;;;20.70;;
51529;SDS011;37613;51.788;21.582;2022-12-11T04:57:33;46.50;;;21.90;;
51529;SDS011;37613;51.788;21.582;2022-12-11T05:01:35;46.90;;;21.80;;
51529;SDS011;37613;51.788;21.582;2022-12-11T05:05:37;45.70;;;20.80;;
51529;SDS011;37613;51.788;21.582;2022-12-11T05:09:40;43.80;;;20.40;;
51529;SDS011;37613;51.788;21.582;2022-12-11T05:13:42;38.60;;;19.00;;
51529;SDS011;37613;51.788;21.582;2022-12-11T05:17:45;40.50;;;16.50;;
51529;SDS011;37613;51.788;21.582;2022-12-11T05:21:47;35.70;;;16.30;;
51529;SDS011;37613;51.788;21.582;2022-12-11T05:25:53;37.10;;;17.60;;
51529;SDS011;37613;51.788;21.582;2022-12-11T05:29:57;37.10;;;17.80;;
51529;SDS011;37613;51.788;21.582;2022-12-11T05:34:02;38.60;;;17.30;;
51529;SDS011;37613;51.788;21.582;2022-12-11T05:38:04;38.00;;;19.10;;
51529;SDS011;37613;51.788;21.582;2022-12-11T05:42:06;36.20;;;16.50;;
51529;SDS011;37613;51.788;21.582;2022-12-11T05:50:12;31.60;;;14.90;;
51529;SDS011;37613;51.788;21.582;2022-12-11T05:54:14;33.00;;;15.50;;
51529;SDS011;37613;51.788;21.582;2022-12-11T05:58:17;36.90;;;14.80;;
51529;SDS011;37613;51.788;21.582;2022-12-11T06:02:19;30.60;;;14.40;;
51529;SDS011;37613;51.788;21.582;2022-12-11T06:06:22;29.10;;;12.60;;
51529;SDS011;37613;51.788;21.582;2022-12-11T06:14:27;29.80;;;14.20;;
51529;SDS011;37613;51.788;21.582;2022-12-11T06:18:35;25.50;;;12.70;;
51529;SDS011;37613;51.788;21.582;2022-12-11T06:22:38;25.10;;;12.70;;
51529;SDS011;37613;51.788;21.582;2022-12-11T06:26:41;26.00;;;13.10;;
51529;SDS011;37613;51.788;21.582;2022-12-11T06:30:43;28.50;;;13.10;;
51529;SDS011;37613;51.788;21.582;2022-12-11T06:34:45;26.00;;;13.60;;
51529;SDS011;37613;51.788;21.582;2022-12-11T06:38:48;29.40;;;14.10;;
51529;SDS011;37613;51.788;21.582;2022-12-11T06:42:51;41.00;;;18.30;;
51529;SDS011;37613;51.788;21.582;2022-12-11T06:46:55;28.70;;;13.80;;
51529;SDS011;37613;51.788;21.582;2022-12-11T06:51:05;30.20;;;14.10;;
51529;SDS011;37613;51.788;21.582;2022-12-11T06:55:08;26.70;;;13.30;;
51529;SDS011;37613;51.788;21.582;2022-12-11T06:59:11;30.10;;;13.70;;
51529;SDS011;37613;51.788;21.582;2022-12-11T07:03:13;22.40;;;11.10;;
51529;SDS011;37613;51.788;21.582;2022-12-11T07:07:15;25.70;;;14.00;;
51529;SDS011;37613;51.788;21.582;2022-12-11T07:11:17;23.80;;;11.60;;
51529;SDS011;37613;51.788;21.582;2022-12-11T07:15:20;26.90;;;12.20;;
51529;SDS011;37613;51.788;21.582;2022-12-11T07:19:23;28.30;;;13.00;;
51529;SDS011;37613;51.788;21.582;2022-12-11T07:23:26;24.20;;;13.20;;
51529;SDS011;37613;51.788;21.582;2022-12-11T07:27:29;22.90;;;12.10;;
51529;SDS011;37613;51.788;21.582;2022-12-11T07:31:31;23.80;;;11.80;;
51529;SDS011;37613;51.788;21.582;2022-12-11T07:35:33;24.90;;;12.60;;
51529;SDS011;37613;51.788;21.582;2022-12-11T07:39:36;22.40;;;11.90;;
51529;SDS011;37613;51.788;21.582;2022-12-11T07:43:38;24.30;;;12.20;;
51529;SDS011;37613;51.788;21.582;2022-12-11T07:47:41;24.90;;;12.40;;
51529;SDS011;37613;51.788;21.582;2022-12-11T07:51:43;24.00;;;13.50;;
51529;SDS011;37613;51.788;21.582;2022-12-11T07:55:45;26.60;;;13.00;;
51529;SDS011;37613;51.788;21.582;2022-12-11T07:59:47;27.20;;;13.90;;
51529;SDS011;37613;51.788;21.582;2022-12-11T08:03:49;30.20;;;12.80;;
51529;SDS011;37613;51.788;21.582;2022-12-11T08:07:51;30.00;;;14.10;;
51529;SDS011;37613;51.788;21.582;2022-12-11T08:11:53;24.80;;;12.60;;
51529;SDS011;37613;51.788;21.582;2022-12-11T08:15:55;25.40;;;12.70;;
51529;SDS011;37613;51.788;21.582;2022-12-11T08:19:57;28.40;;;12.70;;
51529;SDS011;37613;51.788;21.582;2022-12-11T08:23:59;27.20;;;12.90;;
51529;SDS011;37613;51.788;21.582;2022-12-11T08:28:01;24.70;;;11.70;;
51529;SDS011;37613;51.788;21.582;2022-12-11T08:32:04;30.00;;;13.90;;
51529;SDS011;37613;51.788;21.582;2022-12-11T08:36:07;29.00;;;13.30;;
51529;SDS011;37613;51.788;21.582;2022-12-11T08:40:12;26.40;;;11.60;;
51529;SDS011;37613;51.788;21.582;2022-12-11T08:44:14;34.20;;;15.20;;
51529;SDS011;37613;51.788;21.582;2022-12-11T08:48:16;41.90;;;18.80;;
51529;SDS011;37613;51.788;21.582;2022-12-11T08:52:18;37.80;;;16.90;;
51529;SDS011;37613;51.788;21.582;2022-12-11T08:56:21;34.70;;;15.70;;
51529;SDS011;37613;51.788;21.582;2022-12-11T09:00:24;28.90;;;14.90;;
51529;SDS011;37613;51.788;21.582;2022-12-11T09:04:26;31.90;;;15.70;;
51529;SDS011;37613;51.788;21.582;2022-12-11T09:08:28;36.00;;;17.80;;
51529;SDS011;37613;51.788;21.582;2022-12-11T09:12:31;25.10;;;12.70;;
51529;SDS011;37613;51.788;21.582;2022-12-11T09:16:38;26.80;;;11.90;;
51529;SDS011;37613;51.788;21.582;2022-12-11T09:20:40;31.50;;;14.80;;
51529;SDS011;37613;51.788;21.582;2022-12-11T09:24:42;31.70;;;14.60;;
51529;SDS011;37613;51.788;21.582;2022-12-11T09:28:45;25.20;;;12.90;;
51529;SDS011;37613;51.788;21.582;2022-12-11T09:32:47;29.60;;;14.70;;
51529;SDS011;37613;51.788;21.582;2022-12-11T09:36:49;29.10;;;13.60;;
51529;SDS011;37613;51.788;21.582;2022-12-11T09:40:51;33.20;;;16.20;;
51529;SDS011;37613;51.788;21.582;2022-12-11T09:44:54;36.40;;;16.50;;
51529;SDS011;37613;51.788;21.582;2022-12-11T09:49:00;29.70;;;14.30;;
51529;SDS011;37613;51.788;21.582;2022-12-11T09:53:12;31.90;;;14.60;;
51529;SDS011;37613;51.788;21.582;2022-12-11T09:57:42;32.90;;;14.10;;
51529;SDS011;37613;51.788;21.582;2022-12-11T10:02:02;31.00;;;13.40;;
51529;SDS011;37613;51.788;21.582;2022-12-11T10:06:29;33.30;;;15.40;;
51529;SDS011;37613;51.788;21.582;2022-12-11T10:19:20;28.90;;;13.60;;
51529;SDS011;37613;51.788;21.582;2022-12-11T10:23:31;34.30;;;15.40;;
51529;SDS011;37613;51.788;21.582;2022-12-11T10:27:39;33.30;;;14.60;;
51529;SDS011;37613;51.788;21.582;2022-12-11T10:39:58;31.00;;;14.20;;
51529;SDS011;37613;51.788;21.582;2022-12-11T10:44:00;36.00;;;16.80;;
51529;SDS011;37613;51.788;21.582;2022-12-11T10:48:16;28.50;;;13.70;;
51529;SDS011;37613;51.788;21.582;2022-12-11T10:52:23;35.20;;;16.00;;
51529;SDS011;37613;51.788;21.582;2022-12-11T10:56:28;30.50;;;13.70;;
51529;SDS011;37613;51.788;21.582;2022-12-11T11:00:37;36.30;;;16.80;;
51529;SDS011;37613;51.788;21.582;2022-12-11T11:04:41;35.50;;;16.20;;
51529;SDS011;37613;51.788;21.582;2022-12-11T11:08:46;32.10;;;16.30;;
51529;SDS011;37613;51.788;21.582;2022-12-11T11:12:54;24.70;;;12.30;;
51529;SDS011;37613;51.788;21.582;2022-12-11T11:17:00;30.10;;;13.20;;
51529;SDS011;37613;51.788;21.582;2022-12-11T11:21:02;28.30;;;13.50;;
51529;SDS011;37613;51.788;21.582;2022-12-11T11:25:05;28.90;;;13.80;;
51529;SDS011;37613;51.788;21.582;2022-12-11T11:29:21;26.40;;;13.30;;
51529;SDS011;37613;51.788;21.582;2022-12-11T11:33:30;29.00;;;13.30;;
51529;SDS011;37613;51.788;21.582;2022-12-11T11:37:34;33.40;;;14.90;;
51529;SDS011;37613;51.788;21.582;2022-12-11T11:41:42;34.30;;;15.10;;
51529;SDS011;37613;51.788;21.582;2022-12-11T11:46:07;30.00;;;14.10;;
51529;SDS011;37613;51.788;21.582;2022-12-11T11:50:23;28.40;;;14.10;;
51529;SDS011;37613;51.788;21.582;2022-12-11T11:54:32;24.80;;;13.10;;
51529;SDS011;37613;51.788;21.582;2022-12-11T11:58:42;27.80;;;12.40;;
51529;SDS011;37613;51.788;21.582;2022-12-11T12:03:02;23.60;;;12.50;;
51529;SDS011;37613;51.788;21.582;2022-12-11T12:11:32;26.30;;;12.60;;
51529;SDS011;37613;51.788;21.582;2022-12-11T12:15:50;24.70;;;12.00;;
51529;SDS011;37613;51.788;21.582;2022-12-11T12:32:55;26.60;;;12.30;;
51529;SDS011;37613;51.788;21.582;2022-12-11T12:41:35;28.50;;;14.10;;
51529;SDS011;37613;51.788;21.582;2022-12-11T12:45:57;30.20;;;14.90;;
51529;SDS011;37613;51.788;21.582;2022-12-11T12:50:28;28.40;;;13.80;;
51529;SDS011;37613;51.788;21.582;2022-12-11T12:54:39;25.80;;;13.80;;
51529;SDS011;37613;51.788;21.582;2022-12-11T12:58:44;28.50;;;14.70;;
51529;SDS011;37613;51.788;21.582;2022-12-11T13:02:47;28.90;;;14.10;;
51529;SDS011;37613;51.788;21.582;2022-12-11T13:06:51;29.10;;;13.80;;
51529;SDS011;37613;51.788;21.582;2022-12-11T13:11:00;27.70;;;13.90;;
51529;SDS011;37613;51.788;21.582;2022-12-11T13:15:21;27.70;;;13.60;;
51529;SDS011;37613;51.788;21.582;2022-12-11T13:19:35;27.90;;;14.00;;
51529;SDS011;37613;51.788;21.582;2022-12-11T13:23:37;29.60;;;15.00;;
51529;SDS011;37613;51.788;21.582;2022-12-11T13:27:40;31.50;;;14.30;;
51529;SDS011;37613;51.788;21.582;2022-12-11T13:31:55;26.80;;;13.00;;
51529;SDS011;37613;51.788;21.582;2022-12-11T13:36:17;28.90;;;15.20;;
51529;SDS011;37613;51.788;21.582;2022-12-11T13:40:27;24.20;;;11.60;;
51529;SDS011;37613;51.788;21.582;2022-12-11T13:44:40;26.90;;;13.60;;
51529;SDS011;37613;51.788;21.582;2022-12-11T13:48:47;27.60;;;13.00;;
51529;SDS011;37613;51.788;21.582;2022-12-11T13:52:56;27.20;;;13.10;;
51529;SDS011;37613;51.788;21.582;2022-12-11T14:01:09;24.10;;;12.70;;
51529;SDS011;37613;51.788;21.582;2022-12-11T14:05:15;20.70;;;11.80;;
51529;SDS011;37613;51.788;21.582;2022-12-11T14:09:21;27.60;;;12.90;;
51529;SDS011;37613;51.788;21.582;2022-12-11T14:13:34;26.20;;;13.20;;
51529;SDS011;37613;51.788;21.582;2022-12-11T14:17:38;22.30;;;12.10;;
51529;SDS011;37613;51.788;21.582;2022-12-11T14:21:53;23.50;;;12.00;;
51529;SDS011;37613;51.788;21.582;2022-12-11T14:25:58;24.60;;;12.90;;
51529;SDS011;37613;51.788;21.582;2022-12-11T14:30:30;22.20;;;12.30;;
51529;SDS011;37613;51.788;21.582;2022-12-11T14:34:38;27.90;;;13.60;;
51529;SDS011;37613;51.788;21.582;2022-12-11T14:38:46;25.10;;;12.40;;
51529;SDS011;37613;51.788;21.582;2022-12-11T14:42:54;24.30;;;12.20;;
51529;SDS011;37613;51.788;21.582;2022-12-11T14:47:03;22.60;;;10.90;;
51529;SDS011;37613;51.788;21.582;2022-12-11T14:51:14;24.30;;;13.00;;
51529;SDS011;37613;51.788;21.582;2022-12-11T14:55:24;26.70;;;12.30;;
51529;SDS011;37613;51.788;21.582;2022-12-11T14:59:30;26.30;;;13.50;;
51529;SDS011;37613;51.788;21.582;2022-12-11T15:03:37;21.60;;;10.10;;
51529;SDS011;37613;51.788;21.582;2022-12-11T15:07:42;22.90;;;11.80;;
51529;SDS011;37613;51.788;21.582;2022-12-11T15:20:23;23.80;;;12.20;;
51529;SDS011;37613;51.788;21.582;2022-12-11T15:24:35;20.20;;;9.70;;
51529;SDS011;37613;51.788;21.582;2022-12-11T15:28:41;26.40;;;13.20;;
51529;SDS011;37613;51.788;21.582;2022-12-11T15:32:44;24.20;;;12.80;;
51529;SDS011;37613;51.788;21.582;2022-12-11T15:36:46;18.70;;;10.10;;
51529;SDS011;37613;51.788;21.582;2022-12-11T15:44:52;18.30;;;9.50;;
51529;SDS011;37613;51.788;21.582;2022-12-11T15:52:58;29.70;;;13.70;;
51529;SDS011;37613;51.788;21.582;2022-12-11T15:57:03;34.40;;;19.10;;
51529;SDS011;37613;51.788;21.582;2022-12-11T16:01:09;22.40;;;11.60;;
51529;SDS011;37613;51.788;21.582;2022-12-11T16:05:11;40.20;;;19.70;;
51529;SDS011;37613;51.788;21.582;2022-12-11T16:09:14;23.00;;;11.80;;
51529;SDS011;37613;51.788;21.582;2022-12-11T16:13:16;26.20;;;13.20;;
51529;SDS011;37613;51.788;21.582;2022-12-11T16:17:18;32.00;;;15.80;;
51529;SDS011;37613;51.788;21.582;2022-12-11T16:21:21;23.80;;;12.50;;
51529;SDS011;37613;51.788;21.582;2022-12-11T16:25:24;24.90;;;12.00;;
51529;SDS011;37613;51.788;21.582;2022-12-11T16:29:28;20.10;;;10.70;;
51529;SDS011;37613;51.788;21.582;2022-12-11T16:33:34;24.10;;;12.20;;
51529;SDS011;37613;51.788;21.582;2022-12-11T16:37:36;20.70;;;10.60;;
51529;SDS011;37613;51.788;21.582;2022-12-11T16:41:38;19.70;;;11.20;;
51529;SDS011;37613;51.788;21.582;2022-12-11T16:45:41;19.60;;;10.60;;
51529;SDS011;37613;51.788;21.582;2022-12-11T16:49:44;27.30;;;13.60;;
51529;SDS011;37613;51.788;21.582;2022-12-11T16:53:46;20.20;;;10.30;;
51529;SDS011;37613;51.788;21.582;2022-12-11T16:57:49;25.20;;;12.70;;
51529;SDS011;37613;51.788;21.582;2022-12-11T17:01:51;27.00;;;13.60;;
51529;SDS011;37613;51.788;21.582;2022-12-11T17:05:54;20.80;;;11.80;;
51529;SDS011;37613;51.788;21.582;2022-12-11T17:09:56;20.20;;;10.40;;
51529;SDS011;37613;51.788;21.582;2022-12-11T17:13:59;20.70;;;11.00;;
51529;SDS011;37613;51.788;21.582;2022-12-11T17:18:02;15.00;;;8.60;;
51529;SDS011;37613;51.788;21.582;2022-12-11T17:22:06;20.00;;;11.10;;
51529;SDS011;37613;51.788;21.582;2022-12-11T17:26:09;16.80;;;9.60;;
51529;SDS011;37613;51.788;21.582;2022-12-11T17:30:12;23.60;;;11.10;;
51529;SDS011;37613;51.788;21.582;2022-12-11T17:38:17;34.30;;;16.30;;
51529;SDS011;37613;51.788;21.582;2022-12-11T17:42:20;24.50;;;12.20;;
51529;SDS011;37613;51.788;21.582;2022-12-11T17:46:22;19.30;;;11.20;;
51529;SDS011;37613;51.788;21.582;2022-12-11T17:50:25;28.30;;;14.40;;
51529;SDS011;37613;51.788;21.582;2022-12-11T17:54:28;26.30;;;14.50;;
51529;SDS011;37613;51.788;21.582;2022-12-11T17:58:32;42.50;;;19.70;;
51529;SDS011;37613;51.788;21.582;2022-12-11T18:02:35;23.70;;;13.00;;
51529;SDS011;37613;51.788;21.582;2022-12-11T18:06:37;28.70;;;14.50;;
51529;SDS011;37613;51.788;21.582;2022-12-11T18:10:41;24.40;;;11.50;;
51529;SDS011;37613;51.788;21.582;2022-12-11T18:14:45;29.10;;;14.30;;
51529;SDS011;37613;51.788;21.582;2022-12-11T18:18:49;27.10;;;12.90;;
51529;SDS011;37613;51.788;21.582;2022-12-11T18:22:53;24.20;;;11.90;;
51529;SDS011;37613;51.788;21.582;2022-12-11T18:26:57;20.20;;;11.50;;
51529;SDS011;37613;51.788;21.582;2022-12-11T18:31:00;29.50;;;16.20;;
51529;SDS011;37613;51.788;21.582;2022-12-11T18:35:05;26.20;;;13.40;;
51529;SDS011;37613;51.788;21.582;2022-12-11T18:39:08;23.50;;;12.80;;
51529;SDS011;37613;51.788;21.582;2022-12-11T18:43:11;27.70;;;13.70;;
51529;SDS011;37613;51.788;21.582;2022-12-11T18:51:19;23.80;;;12.40;;
51529;SDS011;37613;51.788;21.582;2022-12-11T18:55:25;29.70;;;13.60;;
51529;SDS011;37613;51.788;21.582;2022-12-11T18:59:29;24.60;;;13.50;;
51529;SDS011;37613;51.788;21.582;2022-12-11T19:03:33;20.40;;;11.70;;
51529;SDS011;37613;51.788;21.582;2022-12-11T19:07:37;25.10;;;13.70;;
51529;SDS011;37613;51.788;21.582;2022-12-11T19:11:40;19.40;;;10.70;;
51529;SDS011;37613;51.788;21.582;2022-12-11T19:15:44;22.60;;;12.10;;
51529;SDS011;37613;51.788;21.582;2022-12-11T19:19:49;19.40;;;10.30;;
51529;SDS011;37613;51.788;21.582;2022-12-11T19:23:54;17.80;;;9.40;;
51529;SDS011;37613;51.788;21.582;2022-12-11T19:27:58;20.60;;;10.40;;
51529;SDS011;37613;51.788;21.582;2022-12-11T19:32:01;24.70;;;13.40;;
51529;SDS011;37613;51.788;21.582;2022-12-11T19:36:09;21.70;;;12.50;;
51529;SDS011;37613;51.788;21.582;2022-12-11T19:40:14;21.70;;;11.80;;
51529;SDS011;37613;51.788;21.582;2022-12-11T19:44:21;29.70;;;14.30;;
51529;SDS011;37613;51.788;21.582;2022-12-11T19:48:25;22.10;;;12.60;;
51529;SDS011;37613;51.788;21.582;2022-12-11T19:52:27;24.90;;;13.60;;
51529;SDS011;37613;51.788;21.582;2022-12-11T19:56:31;25.20;;;13.10;;
51529;SDS011;37613;51.788;21.582;2022-12-11T20:00:36;25.20;;;14.20;;
51529;SDS011;37613;51.788;21.582;2022-12-11T20:04:39;25.50;;;14.60;;
51529;SDS011;37613;51.788;21.582;2022-12-11T20:12:46;26.20;;;14.10;;
51529;SDS011;37613;51.788;21.582;2022-12-11T20:16:49;31.20;;;16.20;;
51529;SDS011;37613;51.788;21.582;2022-12-11T20:20:53;27.70;;;15.90;;
51529;SDS011;37613;51.788;21.582;2022-12-11T20:24:58;32.00;;;16.50;;
51529;SDS011;37613;51.788;21.582;2022-12-11T20:29:00;29.10;;;15.60;;
51529;SDS011;37613;51.788;21.582;2022-12-11T20:33:06;29.20;;;17.00;;
51529;SDS011;37613;51.788;21.582;2022-12-11T20:37:09;28.90;;;15.40;;
51529;SDS011;37613;51.788;21.582;2022-12-11T20:41:12;28.30;;;15.60;;
51529;SDS011;37613;51.788;21.582;2022-12-11T20:45:19;31.20;;;16.80;;
51529;SDS011;37613;51.788;21.582;2022-12-11T20:49:25;36.50;;;18.80;;
51529;SDS011;37613;51.788;21.582;2022-12-11T20:53:35;29.60;;;16.10;;
51529;SDS011;37613;51.788;21.582;2022-12-11T20:57:38;27.80;;;15.20;;
51529;SDS011;37613;51.788;21.582;2022-12-11T21:01:41;30.10;;;17.00;;
51529;SDS011;37613;51.788;21.582;2022-12-11T21:05:45;33.70;;;16.40;;
51529;SDS011;37613;51.788;21.582;2022-12-11T21:09:47;26.60;;;15.60;;
51529;SDS011;37613;51.788;21.582;2022-12-11T21:13:51;23.80;;;13.10;;
51529;SDS011;37613;51.788;21.582;2022-12-11T21:17:54;27.60;;;14.30;;
51529;SDS011;37613;51.788;21.582;2022-12-11T21:21:59;22.80;;;13.60;;
51529;SDS011;37613;51.788;21.582;2022-12-11T21:26:01;29.10;;;15.80;;
51529;SDS011;37613;51.788;21.582;2022-12-11T21:30:05;26.20;;;14.30;;
51529;SDS011;37613;51.788;21.582;2022-12-11T21:34:08;24.70;;;13.00;;
51529;SDS011;37613;51.788;21.582;2022-12-11T21:38:11;21.80;;;12.70;;
51529;SDS011;37613;51.788;21.582;2022-12-11T21:42:14;25.90;;;13.60;;
51529;SDS011;37613;51.788;21.582;2022-12-11T21:46:17;26.60;;;12.00;;
51529;SDS011;37613;51.788;21.582;2022-12-11T21:50:21;28.60;;;15.30;;
51529;SDS011;37613;51.788;21.582;2022-12-11T21:54:23;36.40;;;18.30;;
51529;SDS011;37613;51.788;21.582;2022-12-11T21:58:25;25.90;;;14.80;;
51529;SDS011;37613;51.788;21.582;2022-12-11T22:02:28;32.80;;;16.50;;
51529;SDS011;37613;51.788;21.582;2022-12-11T22:06:30;26.60;;;14.10;;
51529;SDS011;37613;51.788;21.582;2022-12-11T22:10:33;31.80;;;15.90;;
51529;SDS011;37613;51.788;21.582;2022-12-11T22:14:35;29.20;;;15.60;;
51529;SDS011;37613;51.788;21.582;2022-12-11T22:18:37;22.70;;;12.10;;
51529;SDS011;37613;51.788;21.582;2022-12-11T22:22:39;23.40;;;13.90;;
51529;SDS011;37613;51.788;21.582;2022-12-11T22:26:42;26.10;;;13.10;;
51529;SDS011;37613;51.788;21.582;2022-12-11T22:30:44;29.80;;;16.00;;
51529;SDS011;37613;51.788;21.582;2022-12-11T22:34:46;27.20;;;15.40;;
51529;SDS011;37613;51.788;21.582;2022-12-11T22:38:48;30.20;;;15.40;;
51529;SDS011;37613;51.788;21.582;2022-12-11T22:42:51;26.80;;;15.10;;
51529;SDS011;37613;51.788;21.582;2022-12-11T22:46:53;28.30;;;16.40;;
51529;SDS011;37613;51.788;21.582;2022-12-11T22:50:55;31.90;;;13.40;;
51529;SDS011;37613;51.788;21.582;2022-12-11T22:55:04;29.40;;;15.80;;
51529;SDS011;37613;51.788;21.582;2022-12-11T22:59:07;29.80;;;14.50;;
51529;SDS011;37613;51.788;21.582;2022-12-11T23:03:09;30.70;;;15.70;;
51529;SDS011;37613;51.788;21.582;2022-12-11T23:07:11;30.80;;;14.10;;
51529;SDS011;37613;51.788;21.582;2022-12-11T23:11:14;30.60;;;16.30;;
51529;SDS011;37613;51.788;21.582;2022-12-11T23:15:19;26.10;;;14.40;;
51529;SDS011;37613;51.788;21.582;2022-12-11T23:19:21;34.60;;;16.10;;
51529;SDS011;37613;51.788;21.582;2022-12-11T23:23:23;42.00;;;20.60;;
51529;SDS011;37613;51.788;21.582;2022-12-11T23:27:27;35.80;;;16.80;;
51529;SDS011;37613;51.788;21.582;2022-12-11T23:31:30;31.10;;;16.10;;
51529;SDS011;37613;51.788;21.582;2022-12-11T23:35:33;36.50;;;17.50;;
51529;SDS011;37613;51.788;21.582;2022-12-11T23:39:35;38.10;;;18.50;;
51529;SDS011;37613;51.788;21.582;2022-12-11T23:43:37;29.80;;;15.30;;
51529;SDS011;37613;51.788;21.582;2022-12-11T23:47:40;32.00;;;16.70;;
51529;SDS011;37613;51.788;21.582;2022-12-11T23:51:41;40.70;;;19.70;;
51529;SDS011;37613;51.788;21.582;2022-12-11T23:55:44;33.40;;;17.70;;
51529;SDS011;37613;51.788;21.582;2022-12-11T23:59:46;31.90;;;15.90;;
